Time;durP1;ratioP1;P1;durP2;ratioP2;P2;SDS_P1;SDS_P2;PMS_P1;PMS_P2;Temp;Humidity;BMP_temperature;BMP_pressure;BME280_temperature;BME280_humidity;BME280_pressure;Samples;Min_cycle;Max_cycle;Signal;HPM_P1;HPM_P2
2022/03/02 00:01:20;;;;;;;35.80;22.23;;;3.00;66.70;;;;;;5030802;28;20236;-74
2022/03/02 00:03:48;;;;;;;29.95;18.38;;;3.00;66.80;;;;;;5038878;28;20204;-72
2022/03/02 00:06:17;;;;;;;28.83;18.73;;;3.10;66.80;;;;;;5036747;28;20224;-74
2022/03/02 00:08:44;;;;;;;26.50;16.92;;;3.10;66.80;;;;;;5037215;28;20204;-74
2022/03/02 00:11:12;;;;;;;29.58;18.67;;;3.10;66.80;;;;;;5063639;28;20212;-74
2022/03/02 00:13:42;;;;;;;38.92;22.27;;;3.10;66.90;;;;;;5035823;28;20228;-74
2022/03/02 00:16:09;;;;;;;40.90;20.60;;;3.10;66.90;;;;;;5033860;28;20232;-73
2022/03/02 00:18:38;;;;;;;31.67;18.48;;;3.10;66.90;;;;;;5038238;28;20205;-74
2022/03/02 00:21:06;;;;;;;27.33;18.30;;;3.10;67.00;;;;;;5037552;28;20211;-74
2022/03/02 00:23:34;;;;;;;26.63;16.60;;;3.10;67.00;;;;;;5035361;28;20197;-74
2022/03/02 00:26:02;;;;;;;26.02;16.45;;;3.10;67.00;;;;;;5035956;28;20266;-74
2022/03/02 00:28:31;;;;;;;24.45;16.90;;;3.10;67.10;;;;;;5036000;28;20254;-74
2022/03/02 00:31:00;;;;;;;30.85;18.83;;;3.10;66.90;;;;;;5034485;28;20255;-74
2022/03/02 00:33:28;;;;;;;36.83;21.25;;;3.00;66.90;;;;;;5032686;28;20212;-73
2022/03/02 00:35:56;;;;;;;51.72;30.05;;;3.00;67.00;;;;;;5041748;28;20239;-74
2022/03/02 00:38:24;;;;;;;38.75;21.75;;;3.00;67.00;;;;;;5035318;28;20205;-74
2022/03/02 00:40:53;;;;;;;30.85;19.23;;;3.00;67.10;;;;;;5033696;28;20989;-74
2022/03/02 00:43:21;;;;;;;29.80;18.80;;;3.00;67.10;;;;;;5032879;28;20193;-74
2022/03/02 00:45:49;;;;;;;26.88;19.08;;;3.00;67.10;;;;;;5030599;28;20233;-74
2022/03/02 00:48:19;;;;;;;36.72;20.75;;;3.00;67.20;;;;;;5029983;28;20216;-74
2022/03/02 00:50:47;;;;;;;41.50;28.73;;;3.00;67.20;;;;;;5031326;28;20279;-74
2022/03/02 00:53:16;;;;;;;50.67;30.02;;;3.00;67.20;;;;;;5031190;28;20206;-74
2022/03/02 00:55:44;;;;;;;43.35;26.73;;;3.00;67.20;;;;;;5034378;28;20651;-74
2022/03/02 00:58:13;;;;;;;40.78;24.15;;;3.00;67.20;;;;;;5034446;28;20205;-73
2022/03/02 01:00:41;;;;;;;33.60;21.60;;;3.00;67.20;;;;;;5034338;28;20243;-74
2022/03/02 01:03:09;;;;;;;44.17;24.55;;;3.00;67.30;;;;;;5033383;28;20211;-74
2022/03/02 01:05:40;;;;;;;52.67;26.10;;;2.90;67.30;;;;;;5034711;28;20217;-73
2022/03/02 01:08:08;;;;;;;39.42;20.95;;;3.00;67.40;;;;;;5064167;28;20686;-73
2022/03/02 01:10:37;;;;;;;38.90;22.38;;;3.00;67.50;;;;;;5035318;28;20274;-73
2022/03/02 01:13:06;;;;;;;33.95;20.40;;;3.00;67.70;;;;;;5031344;28;20755;-72
2022/03/02 01:15:34;;;;;;;30.48;18.70;;;3.10;67.70;;;;;;5029099;28;20261;-72
2022/03/02 01:18:02;;;;;;;30.23;17.80;;;3.10;67.70;;;;;;5031295;28;20205;-72
2022/03/02 01:20:30;;;;;;;26.73;17.42;;;3.10;67.70;;;;;;5037400;28;20217;-72
2022/03/02 01:22:59;;;;;;;29.42;19.23;;;3.10;67.70;;;;;;5034734;28;20206;-72
2022/03/02 01:25:27;;;;;;;28.55;17.75;;;3.10;67.70;;;;;;5037216;28;20228;-72
2022/03/02 01:27:55;;;;;;;24.38;17.08;;;3.10;67.70;;;;;;5032400;28;20240;-73
2022/03/02 01:30:24;;;;;;;26.02;17.17;;;3.10;67.70;;;;;;5030701;28;20228;-73
2022/03/02 01:32:52;;;;;;;27.48;16.85;;;3.10;67.70;;;;;;5037367;28;20224;-73
2022/03/02 01:35:20;;;;;;;28.05;18.00;;;3.10;67.70;;;;;;5030990;28;20569;-72
2022/03/02 01:37:50;;;;;;;29.13;17.60;;;3.10;67.70;;;;;;5034570;28;20189;-72
2022/03/02 01:40:19;;;;;;;26.70;16.60;;;3.10;67.70;;;;;;5034027;28;20216;-73
2022/03/02 01:42:47;;;;;;;27.70;16.80;;;3.10;67.70;;;;;;5034280;28;20716;-73
2022/03/02 01:45:17;;;;;;;23.08;15.80;;;3.10;67.60;;;;;;5030773;28;20224;-73
2022/03/02 01:47:45;;;;;;;39.83;22.70;;;3.10;67.60;;;;;;5030629;28;20686;-73
2022/03/02 01:50:14;;;;;;;31.75;20.13;;;3.10;67.70;;;;;;5033972;28;20259;-74
2022/03/02 01:52:42;;;;;;;79.90;36.58;;;3.00;67.70;;;;;;5036141;28;20196;-73
2022/03/02 01:55:12;;;;;;;39.95;22.67;;;3.00;67.50;;;;;;5029567;28;20228;-73
2022/03/02 01:57:42;;;;;;;28.58;17.25;;;2.90;67.50;;;;;;5030857;28;20204;-74
2022/03/02 02:00:13;;;;;;;30.95;17.98;;;2.80;67.50;;;;;;5033706;28;20219;-74
2022/03/02 02:02:42;;;;;;;25.63;17.63;;;2.80;67.60;;;;;;5032632;28;20204;-74
2022/03/02 02:05:11;;;;;;;28.10;19.13;;;2.80;67.80;;;;;;5031361;28;21098;-73
2022/03/02 02:07:39;;;;;;;28.63;18.73;;;2.80;67.90;;;;;;5035295;28;20970;-73
2022/03/02 02:10:08;;;;;;;30.95;19.13;;;2.80;68.00;;;;;;5030993;28;20279;-72
2022/03/02 02:12:37;;;;;;;33.33;20.35;;;2.80;68.00;;;;;;5036881;28;20266;-71
2022/03/02 02:15:07;;;;;;;37.47;21.40;;;2.80;68.00;;;;;;5036079;28;20233;-72
2022/03/02 02:17:35;;;;;;;34.45;21.05;;;2.80;68.00;;;;;;5033307;28;20222;-73
2022/03/02 02:20:06;;;;;;;30.90;20.10;;;2.80;68.00;;;;;;5030395;28;20720;-73
2022/03/02 02:22:39;;;;;;;32.25;20.42;;;2.80;68.00;;;;;;5034883;28;20794;-72
2022/03/02 02:25:08;;;;;;;28.20;18.85;;;2.80;68.00;;;;;;5031626;28;20230;-73
2022/03/02 02:27:37;;;;;;;48.10;26.20;;;2.80;67.90;;;;;;5032574;28;20215;-73
2022/03/02 02:30:06;;;;;;;39.72;22.52;;;2.70;67.80;;;;;;5030146;28;20209;-73
2022/03/02 02:32:37;;;;;;;44.78;24.02;;;2.70;67.90;;;;;;5029621;28;20594;-73
2022/03/02 02:35:06;;;;;;;42.22;24.23;;;2.60;67.90;;;;;;5033295;28;20229;-74
2022/03/02 02:37:35;;;;;;;40.85;21.77;;;2.60;67.90;;;;;;5034407;28;20263;-73
2022/03/02 02:40:07;;;;;;;34.50;21.30;;;2.50;68.00;;;;;;5033671;28;20202;-73
2022/03/02 02:42:36;;;;;;;34.33;19.83;;;2.50;68.10;;;;;;5035525;28;20204;-74
2022/03/02 02:45:05;;;;;;;33.10;18.70;;;2.60;68.10;;;;;;5034113;28;20235;-74
2022/03/02 02:47:33;;;;;;;33.95;20.35;;;2.50;68.10;;;;;;5035191;28;20240;-73
2022/03/02 02:50:01;;;;;;;39.90;21.77;;;2.50;68.10;;;;;;5037527;28;20236;-72
2022/03/02 02:52:37;;;;;;;31.67;18.40;;;2.50;68.10;;;;;;5036533;28;20201;-72
2022/03/02 02:55:11;;;;;;;24.98;15.80;;;2.50;68.20;;;;;;5039198;28;20236;-73
2022/03/02 02:57:39;;;;;;;24.70;16.70;;;2.50;68.10;;;;;;5031635;28;20696;-74
2022/03/02 03:00:09;;;;;;;30.45;16.98;;;2.50;68.10;;;;;;5036892;28;20204;-73
2022/03/02 03:02:38;;;;;;;26.40;17.77;;;2.50;68.00;;;;;;5033716;28;20217;-74
2022/03/02 03:05:10;;;;;;;24.33;16.67;;;2.50;68.10;;;;;;5033830;28;20678;-73
2022/03/02 03:07:39;;;;;;;26.58;17.50;;;2.40;68.10;;;;;;5038756;28;20213;-72
2022/03/02 03:10:08;;;;;;;23.20;14.13;;;2.40;68.20;;;;;;5032967;28;20207;-72
2022/03/02 03:12:38;;;;;;;25.08;16.75;;;2.40;68.30;;;;;;5036418;28;20707;-72
2022/03/02 03:15:09;;;;;;;28.55;17.02;;;2.40;68.20;;;;;;5037564;28;20256;-72
2022/03/02 03:17:37;;;;;;;24.42;16.38;;;2.40;68.20;;;;;;5038737;28;20205;-72
2022/03/02 03:20:08;;;;;;;27.48;17.10;;;2.40;68.20;;;;;;5033530;28;20222;-72
2022/03/02 03:22:36;;;;;;;25.38;15.77;;;2.30;68.30;;;;;;5037262;28;20295;-72
2022/03/02 03:25:06;;;;;;;26.00;16.30;;;2.30;68.30;;;;;;5039796;28;20275;-72
2022/03/02 03:27:34;;;;;;;21.65;14.82;;;2.30;68.30;;;;;;5034179;28;21159;-72
2022/03/02 03:30:05;;;;;;;26.08;16.13;;;2.30;68.30;;;;;;5033704;28;20212;-72
2022/03/02 03:32:33;;;;;;;22.42;14.93;;;2.20;68.20;;;;;;5034031;28;20228;-72
2022/03/02 03:35:01;;;;;;;22.40;14.35;;;2.20;68.20;;;;;;5034244;28;20744;-72
2022/03/02 03:37:29;;;;;;;24.42;16.50;;;2.20;68.20;;;;;;5036560;28;20212;-72
2022/03/02 03:39:58;;;;;;;25.05;15.90;;;2.10;68.30;;;;;;5035461;28;20208;-72
2022/03/02 03:42:26;;;;;;;21.95;14.23;;;2.10;68.30;;;;;;5036777;28;20209;-72
2022/03/02 03:44:54;;;;;;;24.98;16.10;;;2.10;68.30;;;;;;5035749;28;20601;-72
2022/03/02 03:47:24;;;;;;;20.80;14.10;;;2.10;68.30;;;;;;5028479;28;20236;-72
2022/03/02 03:49:52;;;;;;;25.67;16.67;;;2.10;68.40;;;;;;5036002;28;20320;-72
2022/03/02 03:52:20;;;;;;;22.45;14.73;;;2.10;68.30;;;;;;5039015;28;20227;-72
2022/03/02 03:54:48;;;;;;;26.70;16.38;;;2.00;68.30;;;;;;5035428;28;20656;-72
2022/03/02 03:57:16;;;;;;;23.63;15.93;;;2.00;68.30;;;;;;5035383;28;20319;-72
2022/03/02 03:59:45;;;;;;;26.52;15.40;;;2.00;68.30;;;;;;5037046;28;20193;-72
2022/03/02 04:02:13;;;;;;;29.13;14.98;;;1.90;68.20;;;;;;5030869;28;20765;-72
2022/03/02 04:04:43;;;;;;;25.85;17.05;;;1.90;68.30;;;;;;5035676;28;20279;-72
2022/03/02 04:07:11;;;;;;;23.98;15.80;;;1.90;68.40;;;;;;5036213;28;20201;-72
2022/03/02 04:09:39;;;;;;;23.48;15.40;;;1.90;68.40;;;;;;5040179;28;20316;-72
2022/03/02 04:12:08;;;;;;;26.90;16.33;;;1.90;68.40;;;;;;5035099;28;20216;-72
2022/03/02 04:14:36;;;;;;;21.95;15.55;;;1.90;68.40;;;;;;5039509;28;20304;-72
2022/03/02 04:17:04;;;;;;;21.95;15.38;;;1.90;68.40;;;;;;5031001;28;20232;-72
2022/03/02 04:19:32;;;;;;;28.00;16.30;;;1.90;68.40;;;;;;5032188;28;20224;-72
2022/03/02 04:22:02;;;;;;;25.73;15.80;;;1.80;68.30;;;;;;5036748;28;20692;-72
2022/03/02 04:24:30;;;;;;;27.35;17.70;;;1.80;68.50;;;;;;5033919;28;20623;-72
2022/03/02 04:26:58;;;;;;;24.20;14.25;;;1.80;68.50;;;;;;5037223;28;20275;-72
2022/03/02 04:29:26;;;;;;;24.70;14.50;;;1.90;68.60;;;;;;5036109;28;20213;-72
2022/03/02 04:31:54;;;;;;;22.83;15.32;;;1.90;68.60;;;;;;5040004;28;20845;-72
2022/03/02 04:34:22;;;;;;;24.48;15.70;;;1.90;68.60;;;;;;5047410;28;20274;-72
2022/03/02 04:36:50;;;;;;;24.60;15.82;;;1.90;68.60;;;;;;5032101;28;20192;-72
2022/03/02 04:39:20;;;;;;;28.23;16.33;;;1.90;68.60;;;;;;5032833;28;20784;-72
2022/03/02 04:41:48;;;;;;;24.20;15.88;;;1.90;68.60;;;;;;5028175;28;20878;-72
2022/03/02 04:44:16;;;;;;;23.67;15.30;;;1.90;68.60;;;;;;5037708;28;20213;-72
2022/03/02 04:46:48;;;;;;;25.55;15.82;;;1.90;68.40;;;;;;5037205;28;20319;-72
2022/03/02 04:49:18;;;;;;;23.42;15.02;;;1.80;68.40;;;;;;5034207;28;20307;-72
2022/03/02 04:51:47;;;;;;;23.30;15.02;;;1.80;68.50;;;;;;5029783;28;20212;-72
2022/03/02 04:57:01;;;;;;;24.65;14.80;;;1.80;68.60;;;;;;5038294;28;20208;-72
2022/03/02 04:59:29;;;;;;;27.02;15.13;;;1.80;68.60;;;;;;5038737;28;20205;-73
2022/03/02 05:01:57;;;;;;;26.45;15.07;;;1.80;68.80;;;;;;5034170;28;20248;-73
2022/03/02 05:04:26;;;;;;;24.08;16.15;;;1.90;68.80;;;;;;5032252;28;20287;-73
2022/03/02 05:06:55;;;;;;;23.77;15.68;;;1.90;68.60;;;;;;5036019;28;20201;-73
2022/03/02 05:09:22;;;;;;;22.65;14.93;;;1.90;68.50;;;;;;5035967;28;20223;-73
2022/03/02 05:11:50;;;;;;;24.58;15.95;;;1.80;68.50;;;;;;5035344;28;20212;-72
2022/03/02 05:14:20;;;;;;;27.33;16.95;;;1.80;68.60;;;;;;5035097;28;20189;-72
2022/03/02 05:16:47;;;;;;;29.27;18.65;;;1.80;68.80;;;;;;5031946;28;20918;-72
2022/03/02 05:19:15;;;;;;;32.30;18.20;;;1.90;68.80;;;;;;5029271;28;20209;-72
2022/03/02 05:21:43;;;;;;;26.65;18.08;;;1.90;68.80;;;;;;5029003;28;20880;-72
2022/03/02 05:24:11;;;;;;;26.48;17.73;;;1.90;68.80;;;;;;5035065;28;20201;-72
2022/03/02 05:26:39;;;;;;;25.50;16.58;;;1.90;68.60;;;;;;5029553;28;20271;-72
2022/03/02 05:29:07;;;;;;;28.85;17.52;;;1.90;68.60;;;;;;5037705;28;20213;-72
2022/03/02 05:31:37;;;;;;;25.63;15.90;;;1.90;68.60;;;;;;5032199;28;20244;-72
2022/03/02 05:34:06;;;;;;;20.98;16.15;;;1.90;68.60;;;;;;5034936;28;20210;-72
2022/03/02 05:36:34;;;;;;;25.33;15.57;;;1.90;68.80;;;;;;5036036;28;20229;-72
2022/03/02 05:39:02;;;;;;;21.63;15.02;;;1.80;68.60;;;;;;5038006;28;20214;-72
2022/03/02 05:41:30;;;;;;;23.23;15.07;;;1.80;68.60;;;;;;5034977;28;20701;-72
2022/03/02 05:43:58;;;;;;;23.98;16.55;;;1.80;68.60;;;;;;5029496;28;20201;-72
2022/03/02 05:46:25;;;;;;;23.20;15.20;;;1.80;68.80;;;;;;5030049;28;20273;-72
2022/03/02 05:48:55;;;;;;;20.95;14.23;;;1.80;68.90;;;;;;5027934;28;20208;-72
2022/03/02 05:51:23;;;;;;;21.42;14.65;;;1.80;68.90;;;;;;5038449;28;20205;-72
2022/03/02 05:53:51;;;;;;;24.92;15.38;;;1.80;68.90;;;;;;5036374;28;20769;-72
2022/03/02 05:56:19;;;;;;;24.45;15.75;;;1.80;68.90;;;;;;5034052;28;20229;-72
2022/03/02 05:58:47;;;;;;;20.40;14.27;;;1.80;68.90;;;;;;5030025;28;20611;-72
2022/03/02 06:01:16;;;;;;;21.25;13.70;;;1.70;68.80;;;;;;5028526;28;20243;-72
2022/03/02 06:03:44;;;;;;;19.38;13.48;;;1.70;68.80;;;;;;5033032;28;20196;-72
2022/03/02 06:06:35;;;;;;;19.75;14.25;;;1.70;68.90;;;;;;5030961;28;20224;-72
2022/03/02 06:09:05;;;;;;;24.70;15.18;;;1.70;69.00;;;;;;5032493;28;20208;-72
2022/03/02 06:11:33;;;;;;;22.85;15.13;;;1.70;69.00;;;;;;5035856;28;20784;-72
2022/03/02 06:14:02;;;;;;;25.20;15.75;;;1.70;69.10;;;;;;5033728;28;20216;-73
2022/03/02 06:16:31;;;;;;;31.67;15.60;;;1.70;69.10;;;;;;5034054;28;20232;-72
2022/03/02 06:18:59;;;;;;;22.65;15.07;;;1.80;69.10;;;;;;5038557;28;20202;-72
2022/03/02 06:21:30;;;;;;;25.90;15.55;;;1.80;69.20;;;;;;5033721;28;20636;-72
2022/03/02 06:23:59;;;;;;;25.25;15.40;;;1.80;69.10;;;;;;5035986;28;20385;-74
2022/03/02 06:26:27;;;;;;;27.27;15.25;;;1.80;69.10;;;;;;5037432;28;20277;-73
2022/03/02 06:28:55;;;;;;;24.08;15.32;;;1.80;69.00;;;;;;5036358;28;20805;-72
2022/03/02 06:31:23;;;;;;;24.90;16.25;;;1.70;68.90;;;;;;5036464;28;20773;-72
2022/03/02 06:33:51;;;;;;;26.55;17.10;;;1.70;69.00;;;;;;5032775;28;20280;-71
2022/03/02 06:36:20;;;;;;;23.85;16.90;;;1.70;69.10;;;;;;5036437;28;20221;-71
2022/03/02 06:38:48;;;;;;;30.52;19.83;;;1.70;69.30;;;;;;5034744;28;20201;-71
2022/03/02 06:41:25;;;;;;;31.42;18.23;;;1.80;69.30;;;;;;5035315;28;20197;-71
2022/03/02 06:44:01;;;;;;;25.05;16.95;;;1.80;69.30;;;;;;5033978;28;20224;-73
2022/03/02 06:46:32;;;;;;;32.80;18.33;;;1.80;69.20;;;;;;5033866;28;20235;-72
2022/03/02 06:49:06;;;;;;;32.53;20.23;;;1.80;69.20;;;;;;5035852;28;20276;-73
2022/03/02 06:51:35;;;;;;;34.15;22.90;;;1.80;69.30;;;;;;5036328;28;20208;-72
2022/03/02 06:54:05;;;;;;;35.20;22.70;;;1.90;69.40;;;;;;5036896;28;20211;-73
2022/03/02 06:56:48;;;;;;;39.13;25.15;;;1.90;69.40;;;;;;5034644;28;20840;-72
2022/03/02 06:59:27;;;;;;;35.80;25.85;;;1.90;69.50;;;;;;5037958;28;20212;-71
2022/03/02 07:01:59;;;;;;;40.70;22.40;;;1.90;69.40;;;;;;5035302;28;20744;-70
2022/03/02 07:04:28;;;;;;;37.92;20.52;;;1.90;69.40;;;;;;5065113;28;20580;-70
2022/03/02 07:06:56;;;;;;;46.10;24.52;;;1.90;69.50;;;;;;5038096;28;20575;-71
2022/03/02 07:09:24;;;;;;;41.50;21.15;;;1.90;69.60;;;;;;5035224;28;20208;-70
2022/03/02 07:11:54;;;;;;;41.45;22.80;;;2.00;69.80;;;;;;5035479;28;20213;-72
2022/03/02 07:14:24;;;;;;;35.55;22.45;;;2.10;70.00;;;;;;5031313;28;20209;-71
2022/03/02 07:16:52;;;;;;;34.95;19.85;;;2.20;70.00;;;;;;5040154;28;20237;-72
2022/03/02 07:19:21;;;;;;;34.63;20.60;;;2.30;69.90;;;;;;5033472;28;20734;-72
2022/03/02 07:21:51;;;;;;;26.88;18.90;;;2.30;69.90;;;;;;5032533;28;20907;-72
2022/03/02 07:24:22;;;;;;;33.90;18.58;;;2.40;69.90;;;;;;5035154;28;20197;-73
2022/03/02 07:26:55;;;;;;;33.72;21.35;;;2.50;69.90;;;;;;5038050;28;20219;-72
2022/03/02 07:29:26;;;;;;;35.55;19.83;;;2.50;69.90;;;;;;5030866;28;20645;-72
2022/03/02 07:31:57;;;;;;;32.83;19.92;;;2.60;70.00;;;;;;5034335;28;20248;-72
2022/03/02 07:34:27;;;;;;;30.00;19.02;;;2.60;70.00;;;;;;5034697;28;20208;-71
2022/03/02 07:36:55;;;;;;;31.83;18.85;;;2.70;70.00;;;;;;5029491;28;20267;-71
2022/03/02 07:39:23;;;;;;;28.10;18.35;;;2.70;70.00;;;;;;5033408;28;20204;-71
2022/03/02 07:41:51;;;;;;;24.50;17.58;;;2.80;70.00;;;;;;5035614;28;20209;-71
2022/03/02 07:44:20;;;;;;;31.30;18.67;;;2.80;70.00;;;;;;5030931;28;20239;-71
2022/03/02 07:46:48;;;;;;;28.90;17.15;;;2.90;69.90;;;;;;5031110;28;20224;-71
2022/03/02 07:49:16;;;;;;;27.58;17.42;;;2.90;69.90;;;;;;5037505;28;20292;-71
2022/03/02 07:51:46;;;;;;;26.60;16.55;;;3.00;69.90;;;;;;5035496;28;20948;-71
2022/03/02 07:54:16;;;;;;;23.02;16.15;;;3.00;69.90;;;;;;5034201;28;20205;-72
2022/03/02 07:56:45;;;;;;;23.90;15.35;;;3.00;69.70;;;;;;5039187;28;20220;-71
2022/03/02 07:59:16;;;;;;;25.13;15.38;;;3.00;69.60;;;;;;5037379;28;20688;-71
2022/03/02 08:01:46;;;;;;;22.88;14.85;;;3.00;69.60;;;;;;5033365;28;20231;-74
2022/03/02 08:04:15;;;;;;;25.67;16.35;;;3.00;69.50;;;;;;5033202;28;20262;-71
2022/03/02 08:06:43;;;;;;;23.80;16.52;;;3.00;69.40;;;;;;5037777;28;20228;-71
2022/03/02 08:09:13;;;;;;;84.40;44.38;;;3.00;69.50;;;;;;5035623;28;20613;-71
2022/03/02 08:11:41;;;;;;;32.78;20.48;;;3.10;69.50;;;;;;5033255;28;20216;-72
2022/03/02 08:14:09;;;;;;;41.17;23.90;;;3.10;69.40;;;;;;5034128;28;20208;-71
2022/03/02 08:16:37;;;;;;;42.88;24.55;;;3.10;69.40;;;;;;5036641;28;20233;-69
2022/03/02 08:19:07;;;;;;;41.20;23.83;;;3.20;69.50;;;;;;5038642;28;20209;-69
2022/03/02 08:21:36;;;;;;;34.28;20.05;;;3.30;69.50;;;;;;5038033;28;20232;-69
2022/03/02 08:24:08;;;;;;;31.90;18.25;;;3.40;69.50;;;;;;5036768;28;20198;-72
2022/03/02 08:26:39;;;;;;;21.42;14.70;;;3.40;69.40;;;;;;5037314;28;20228;-71
2022/03/02 08:29:10;;;;;;;21.92;15.15;;;3.50;69.30;;;;;;5034307;28;20206;-72
2022/03/02 08:31:42;;;;;;;23.05;15.90;;;3.50;69.10;;;;;;5035144;28;20243;-71
2022/03/02 08:34:11;;;;;;;23.67;14.82;;;3.50;69.00;;;;;;5033675;28;20267;-71
2022/03/02 08:36:42;;;;;;;25.30;15.85;;;3.60;68.90;;;;;;5039677;28;20221;-73
2022/03/02 08:39:13;;;;;;;24.52;14.85;;;3.60;68.70;;;;;;5037067;28;20201;-71
2022/03/02 08:41:41;;;;;;;28.00;15.80;;;3.50;68.70;;;;;;5030619;28;20196;-71
2022/03/02 08:44:12;;;;;;;22.55;15.10;;;3.50;68.70;;;;;;5034127;28;20741;-71
2022/03/02 08:46:41;;;;;;;25.10;16.83;;;3.50;68.50;;;;;;5023799;28;20298;-71
2022/03/02 08:49:12;;;;;;;32.78;17.85;;;3.50;68.70;;;;;;5032400;28;20205;-72
2022/03/02 08:51:40;;;;;;;30.10;15.57;;;3.50;68.70;;;;;;5031447;28;20270;-74
2022/03/02 08:54:13;;;;;;;26.08;15.40;;;3.60;68.80;;;;;;5031043;28;20276;-72
2022/03/02 08:56:42;;;;;;;25.17;17.52;;;3.60;68.80;;;;;;5034314;28;20242;-71
2022/03/02 08:59:17;;;;;;;25.88;16.27;;;3.70;68.60;;;;;;5032785;28;20217;-71
2022/03/02 09:01:50;;;;;;;32.58;18.13;;;3.70;68.50;;;;;;5030788;28;20273;-70
2022/03/02 09:04:21;;;;;;;22.45;14.27;;;3.70;68.30;;;;;;5059943;28;20205;-71
2022/03/02 09:06:50;;;;;;;26.15;14.60;;;3.70;68.30;;;;;;5030833;28;20230;-71
2022/03/02 09:09:18;;;;;;;27.00;15.55;;;3.70;68.40;;;;;;5030699;28;20290;-72
2022/03/02 09:11:46;;;;;;;29.88;15.93;;;3.70;68.20;;;;;;5034374;28;20266;-72
2022/03/02 09:14:15;;;;;;;26.23;14.85;;;3.80;68.30;;;;;;5020972;28;20217;-69
2022/03/02 09:16:44;;;;;;;22.00;15.07;;;3.80;68.10;;;;;;5035556;28;20225;-71
2022/03/02 09:19:12;;;;;;;26.38;16.58;;;3.80;68.10;;;;;;5014455;28;20988;-71
2022/03/02 09:21:43;;;;;;;24.23;15.30;;;3.80;67.80;;;;;;5026985;28;20294;-72
2022/03/02 09:24:12;;;;;;;24.98;15.50;;;3.80;68.10;;;;;;5031173;28;20200;-72
2022/03/02 09:26:41;;;;;;;29.13;15.82;;;3.90;67.80;;;;;;5021449;28;20249;-70
2022/03/02 09:29:09;;;;;;;24.95;14.80;;;3.90;66.80;;;;;;5026129;28;20213;-70
2022/03/02 09:31:37;;;;;;;33.63;14.98;;;3.80;66.90;;;;;;5020922;28;20237;-71
2022/03/02 09:34:09;;;;;;;23.35;15.07;;;3.80;67.30;;;;;;5031079;28;20288;-71
2022/03/02 09:36:38;;;;;;;29.17;15.27;;;3.80;67.30;;;;;;5014883;28;20822;-72
2022/03/02 09:39:10;;;;;;;26.52;15.63;;;3.80;66.70;;;;;;5029482;28;20209;-70
2022/03/02 09:41:43;;;;;;;25.70;15.73;;;3.80;67.10;;;;;;5010099;28;20256;-70
2022/03/02 09:44:13;;;;;;;25.85;16.15;;;3.80;67.20;;;;;;5032188;28;20216;-71
2022/03/02 09:46:42;;;;;;;28.27;16.80;;;3.80;67.10;;;;;;5007407;28;20279;-71
2022/03/02 09:49:11;;;;;;;27.73;17.00;;;3.80;67.20;;;;;;5029163;28;20846;-70
2022/03/02 09:51:41;;;;;;;26.90;16.60;;;3.80;67.00;;;;;;5031752;28;20212;-70
2022/03/02 09:54:10;;;;;;;29.13;15.77;;;3.80;67.00;;;;;;5032538;28;20282;-70
2022/03/02 09:56:39;;;;;;;24.45;15.75;;;3.80;66.50;;;;;;5025562;28;20307;-72
2022/03/02 09:59:08;;;;;;;26.33;15.95;;;3.80;66.40;;;;;;5031828;28;20286;-72
2022/03/02 10:01:39;;;;;;;27.05;15.02;;;3.80;66.70;;;;;;5036845;23;20608;-83
2022/03/02 10:04:17;;;;;;;27.75;16.27;;;3.80;66.80;;;;;;4966253;28;20213;-83
2022/03/02 10:06:46;;;;;;;31.30;19.02;;;3.80;66.40;;;;;;5004518;28;20234;-83
2022/03/02 10:09:21;;;;;;;23.23;15.40;;;3.80;66.70;;;;;;4994432;28;20210;-83
2022/03/02 10:11:49;;;;;;;25.95;16.80;;;3.80;66.60;;;;;;4993907;28;20217;-79
2022/03/02 10:14:19;;;;;;;31.55;16.33;;;3.90;66.60;;;;;;4964674;28;20841;-79
2022/03/02 10:16:56;;;;;;;26.88;16.40;;;3.90;66.50;;;;;;4976675;28;20241;-79
2022/03/02 10:19:45;;;;;;;28.02;16.65;;;3.90;66.20;;;;;;4995440;28;20222;-79
2022/03/02 10:22:24;;;;;;;24.88;15.85;;;4.00;66.40;;;;;;4966770;28;20226;-77
2022/03/02 10:25:04;;;;;;;26.42;16.83;;;4.00;66.60;;;;;;4970424;28;20253;-80
2022/03/02 10:27:36;;;;;;;28.55;17.13;;;4.10;66.60;;;;;;4976775;28;20304;-79
2022/03/02 10:30:07;;;;;;;30.10;17.00;;;4.10;66.70;;;;;;4993367;28;20207;-79
2022/03/02 10:32:36;;;;;;;27.85;18.75;;;4.20;66.20;;;;;;4982386;28;21123;-79
2022/03/02 10:35:07;;;;;;;29.25;17.35;;;4.20;66.40;;;;;;4981189;28;20207;-80
2022/03/02 10:37:37;;;;;;;27.70;16.95;;;4.30;66.20;;;;;;4994297;28;20234;-80
2022/03/02 10:40:13;;;;;;;25.52;16.95;;;4.40;66.20;;;;;;4979678;28;20707;-81
2022/03/02 10:42:44;;;;;;;26.55;16.88;;;4.40;66.20;;;;;;4994502;28;20469;-81
2022/03/02 10:45:18;;;;;;;26.05;17.80;;;4.40;66.00;;;;;;4980180;28;20297;-79
2022/03/02 10:48:11;;;;;;;29.08;18.33;;;4.40;66.00;;;;;;4995419;28;20233;-80
2022/03/02 10:50:41;;;;;;;32.42;17.77;;;4.40;66.10;;;;;;4994925;28;20202;-80
2022/03/02 10:53:13;;;;;;;25.80;17.27;;;4.50;66.00;;;;;;4982062;28;20241;-82
2022/03/02 10:55:45;;;;;;;36.20;17.42;;;4.50;65.90;;;;;;4999186;28;20203;-82
2022/03/02 10:58:15;;;;;;;24.63;16.30;;;4.50;65.80;;;;;;4982173;28;20788;-82
2022/03/02 11:00:44;;;;;;;27.65;17.90;;;4.50;65.70;;;;;;4990762;28;21488;-81
2022/03/02 11:03:14;;;;;;;29.52;17.10;;;4.50;65.80;;;;;;5003359;28;20210;-81
2022/03/02 11:05:43;;;;;;;30.40;18.10;;;4.50;65.70;;;;;;4993764;28;20199;-81
2022/03/02 11:08:11;;;;;;;34.63;20.30;;;4.50;65.80;;;;;;4987563;28;20235;-80
2022/03/02 11:10:40;;;;;;;26.58;17.05;;;4.50;65.80;;;;;;4998554;28;20671;-81
2022/03/02 11:13:12;;;;;;;35.88;19.70;;;4.50;65.70;;;;;;4986305;28;20227;-80
2022/03/02 11:15:49;;;;;;;28.33;18.50;;;4.60;65.60;;;;;;4985873;28;20270;-81
2022/03/02 11:18:19;;;;;;;31.25;17.15;;;4.60;65.60;;;;;;5000600;28;20646;-81
2022/03/02 11:20:59;;;;;;;28.30;18.25;;;4.60;65.70;;;;;;4985907;28;20309;-81
2022/03/02 11:23:27;;;;;;;37.78;22.00;;;4.60;65.60;;;;;;4981470;28;20253;-82
2022/03/02 11:25:56;;;;;;;37.90;21.90;;;4.70;65.60;;;;;;4995278;28;20211;-80
2022/03/02 11:28:26;;;;;;;33.20;21.65;;;4.70;65.60;;;;;;4984291;28;20288;-79
2022/03/02 11:30:55;;;;;;;29.08;18.50;;;4.70;65.60;;;;;;5006332;28;20249;-80
2022/03/02 11:33:26;;;;;;;28.35;19.00;;;4.80;65.70;;;;;;4981638;28;20218;-80
2022/03/02 11:35:59;;;;;;;32.13;21.10;;;4.80;65.70;;;;;;4990480;28;20236;-81
2022/03/02 11:38:31;;;;;;;30.20;18.58;;;4.90;65.60;;;;;;5000111;28;20254;-80
2022/03/02 11:41:00;;;;;;;29.30;19.23;;;4.90;65.60;;;;;;4978142;28;20261;-80
2022/03/02 11:43:32;;;;;;;27.63;18.70;;;5.00;65.70;;;;;;4981700;28;20210;-80
2022/03/02 11:46:02;;;;;;;36.92;22.63;;;5.10;65.40;;;;;;4979270;28;20238;-80
2022/03/02 11:48:32;;;;;;;38.92;23.95;;;5.10;65.40;;;;;;4972020;28;20758;-80
2022/03/02 11:51:11;;;;;;;30.08;18.05;;;5.10;65.30;;;;;;4985176;28;20217;-80
2022/03/02 11:53:41;;;;;;;23.00;16.20;;;5.10;65.30;;;;;;4980006;28;20629;-80
2022/03/02 11:56:13;;;;;;;28.20;17.13;;;5.10;65.20;;;;;;4994842;28;20215;-80
2022/03/02 11:59:10;;;;;;;27.08;17.55;;;5.10;65.20;;;;;;4981464;28;20206;-80
2022/03/02 12:01:46;;;;;;;30.50;17.88;;;5.10;65.10;;;;;;4946111;28;20241;-80
2022/03/02 12:04:32;;;;;;;26.45;17.55;;;5.10;65.10;;;;;;4978020;28;20245;-79
2022/03/02 12:07:04;;;;;;;32.17;19.95;;;5.10;65.10;;;;;;4978906;28;20226;-80
2022/03/02 12:09:34;;;;;;;28.30;17.92;;;5.10;65.10;;;;;;4990234;28;20273;-80
2022/03/02 12:12:16;;;;;;;28.17;17.58;;;5.10;65.10;;;;;;4981074;28;20218;-80
2022/03/02 12:14:49;;;;;;;26.52;16.45;;;5.20;65.10;;;;;;4986666;28;20199;-78
2022/03/02 12:17:20;;;;;;;28.65;17.40;;;5.20;65.10;;;;;;4981358;28;20632;-81
2022/03/02 12:19:51;;;;;;;30.83;17.60;;;5.20;65.10;;;;;;4983299;28;20454;-81
2022/03/02 12:22:19;;;;;;;23.17;17.20;;;5.30;65.10;;;;;;4996920;28;20213;-80
2022/03/02 12:24:49;;;;;;;27.27;17.35;;;5.30;64.90;;;;;;4980908;28;20213;-79
2022/03/02 12:27:18;;;;;;;27.98;16.60;;;5.20;65.00;;;;;;4983210;28;20446;-80
2022/03/02 12:29:54;;;;;;;27.80;17.50;;;5.30;65.20;;;;;;4985198;28;20199;-81
2022/03/02 12:32:22;;;;;;;27.67;17.33;;;5.30;65.10;;;;;;4981691;28;20230;-81
2022/03/02 12:34:52;;;;;;;27.08;15.30;;;5.30;65.20;;;;;;4984885;28;20206;-81
2022/03/02 12:37:22;;;;;;;32.70;17.40;;;5.40;65.30;;;;;;4998088;28;20292;-79
2022/03/02 12:39:51;;;;;;;27.15;17.80;;;5.50;65.20;;;;;;4999426;28;20202;-78
2022/03/02 12:42:20;;;;;;;26.25;17.90;;;5.50;65.10;;;;;;5001283;28;20217;-79
2022/03/02 12:44:54;;;;;;;27.15;17.55;;;5.60;65.00;;;;;;4985320;28;20191;-79
2022/03/02 12:47:24;;;;;;;28.08;16.83;;;5.70;65.10;;;;;;4987043;28;20230;-79
2022/03/02 12:49:52;;;;;;;29.30;16.48;;;5.70;64.70;;;;;;4998622;28;20206;-82
2022/03/02 12:52:21;;;;;;;26.63;17.88;;;5.80;64.70;;;;;;4987133;28;20683;-80